createdAt,value
2023-01-17T00:00:37.516Z,1.84
2023-01-17T00:01:37.501Z,1.93
2023-01-17T00:02:37.593Z,1.86
2023-01-17T00:03:37.511Z,1.92
2023-01-17T00:04:37.422Z,1.9
2023-01-17T00:05:37.475Z,1.93
2023-01-17T00:06:37.147Z,1.97
2023-01-17T00:07:37.370Z,1.89
2023-01-17T00:08:37.466Z,1.83
2023-01-17T00:09:37.058Z,1.86
2023-01-17T00:10:37.317Z,1.83
2023-01-17T00:11:37.053Z,1.92
2023-01-17T00:12:37.028Z,1.83
2023-01-17T00:13:37.242Z,1.9
2023-01-17T00:14:37.243Z,1.76
2023-01-17T00:15:36.970Z,1.86
2023-01-17T00:16:36.940Z,1.76
2023-01-17T00:17:36.937Z,1.82
2023-01-17T00:19:06.397Z,1.79
2023-01-17T00:19:36.628Z,1.72
2023-01-17T00:20:36.880Z,1.74
2023-01-17T00:21:37.183Z,1.69
2023-01-17T00:22:37.096Z,1.74
2023-01-17T00:23:37.078Z,1.69
2023-01-17T00:24:37.055Z,1.75
2023-01-17T00:25:37.043Z,1.76
2023-01-17T00:26:36.485Z,1.86
2023-01-17T00:27:36.990Z,1.86
2023-01-17T00:28:36.991Z,1.74
2023-01-17T00:29:36.425Z,1.87
2023-01-17T00:30:36.667Z,1.82
2023-01-17T00:31:37.071Z,1.79
2023-01-17T00:32:36.670Z,1.86
2023-01-17T00:33:36.384Z,1.82
2023-01-17T00:34:36.844Z,1.86
2023-01-17T00:35:36.668Z,1.83
2023-01-17T00:36:36.308Z,1.87
2023-01-17T00:37:36.979Z,1.9
2023-01-17T00:38:36.854Z,1.83
2023-01-17T00:39:36.498Z,1.86
2023-01-17T00:40:36.501Z,1.86
2023-01-17T00:41:36.217Z,1.79
2023-01-17T00:42:36.212Z,1.89
2023-01-17T00:43:36.689Z,1.84
2023-01-17T00:44:36.663Z,1.84
2023-01-17T00:45:36.399Z,1.74
2023-01-17T00:46:36.662Z,1.74
2023-01-17T00:47:36.116Z,1.78
2023-01-17T00:48:36.599Z,1.68
2023-01-17T00:49:36.648Z,1.76
2023-01-17T00:50:36.565Z,1.76
2023-01-17T00:51:36.268Z,1.78
2023-01-17T00:52:36.520Z,1.72
2023-01-17T00:53:36.607Z,1.74
2023-01-17T00:54:36.218Z,1.76
2023-01-17T00:55:36.217Z,1.75
2023-01-17T00:56:36.187Z,1.72
2023-01-17T00:57:35.918Z,1.78
2023-01-17T00:58:36.400Z,1.74
2023-01-17T00:59:35.864Z,1.74
2023-01-17T01:00:36.538Z,1.71
2023-01-17T01:01:36.379Z,1.78
2023-01-17T01:02:36.272Z,1.75
2023-01-17T01:03:35.790Z,1.75
2023-01-17T01:04:36.286Z,1.78
2023-01-17T01:05:36.015Z,1.72
2023-01-17T01:06:36.246Z,1.78
2023-01-17T01:07:35.960Z,1.69
2023-01-17T01:08:36.220Z,1.71
2023-01-17T01:09:36.259Z,1.71
2023-01-17T01:10:35.912Z,1.71
2023-01-17T01:11:36.169Z,1.75
2023-01-17T01:12:35.876Z,1.76
2023-01-17T01:13:36.109Z,1.74
2023-01-17T01:14:36.078Z,1.76
2023-01-17T01:15:35.818Z,1.82
2023-01-17T01:16:36.339Z,1.76
2023-01-17T01:17:35.796Z,1.76
2023-01-17T01:18:35.770Z,1.74
2023-01-17T01:19:35.981Z,1.75
2023-01-17T01:20:35.979Z,1.75
2023-01-17T01:21:36.029Z,1.76
2023-01-17T01:22:35.954Z,1.83
2023-01-17T01:23:35.662Z,1.71
2023-01-17T01:24:35.645Z,1.76
2023-01-17T01:25:35.975Z,1.74
2023-01-17T01:26:35.868Z,1.68
2023-01-17T01:27:35.855Z,1.66
2023-01-17T01:28:35.829Z,1.6
2023-01-17T01:29:35.555Z,1.71
2023-01-17T01:30:35.565Z,1.58
2023-01-17T01:31:35.408Z,1.6
2023-01-17T01:32:35.229Z,1.65
2023-01-17T01:33:35.482Z,1.64
2023-01-17T01:34:35.199Z,1.56
2023-01-17T01:35:35.694Z,1.56
2023-01-17T01:36:35.656Z,1.54
2023-01-17T01:37:35.647Z,1.54
2023-01-17T01:38:35.363Z,1.6
2023-01-17T01:39:35.610Z,1.51
2023-01-17T01:40:35.586Z,1.47
2023-01-17T01:41:35.661Z,1.47
2023-01-17T01:42:35.289Z,1.57
2023-01-17T01:43:35.290Z,1.56
2023-01-17T01:44:35.496Z,1.53
2023-01-17T01:45:35.650Z,1.54
2023-01-17T01:46:35.481Z,1.53
2023-01-17T01:47:35.197Z,1.56
2023-01-17T01:48:35.177Z,1.38
2023-01-17T01:49:35.414Z,1.44
2023-01-17T01:50:35.404Z,1.38
2023-01-17T01:51:35.422Z,1.4
2023-01-17T01:52:35.350Z,1.39
2023-01-17T01:53:34.824Z,1.42
2023-01-17T01:54:35.063Z,1.38
2023-01-17T01:55:35.328Z,1.21
2023-01-17T01:56:35.338Z,1.22
2023-01-17T01:57:35.322Z,1.29
2023-01-17T01:58:35.237Z,1.28
2023-01-17T01:59:35.218Z,1.3
2023-01-17T02:00:35.269Z,1.15
2023-01-17T02:01:35.280Z,1.26
2023-01-17T02:02:34.652Z,1.28
2023-01-17T02:03:35.114Z,1.2
2023-01-17T02:04:34.863Z,1.17
2023-01-17T02:05:34.844Z,1.2
2023-01-17T02:06:35.086Z,1.15
2023-01-17T02:07:35.067Z,1.17
2023-01-17T02:08:35.037Z,1.12
2023-01-17T02:09:35.015Z,1.15
2023-01-17T02:10:35.003Z,1.12
2023-01-17T02:11:34.984Z,1.11
2023-01-17T02:12:34.967Z,1.17
2023-01-17T02:13:35.012Z,1.18
2023-01-17T02:14:34.404Z,1.15
2023-01-17T02:15:35.067Z,1.17
2023-01-17T02:16:35.040Z,1.1
2023-01-17T02:17:35.036Z,1.14
2023-01-17T02:18:35.019Z,1.15
2023-01-17T02:19:34.730Z,1.14
2023-01-17T02:20:35.012Z,1.17
2023-01-17T02:21:34.698Z,1.15
2023-01-17T02:22:34.926Z,1.2
2023-01-17T02:23:34.671Z,1.17
2023-01-17T02:24:34.635Z,1.17
2023-01-17T02:25:34.604Z,1.17
2023-01-17T02:26:34.768Z,1.12
2023-01-17T02:27:34.577Z,1.21
2023-01-17T02:28:34.551Z,1.18
2023-01-17T02:29:34.895Z,1.14
2023-01-17T02:30:34.791Z,1.24
2023-01-17T02:31:34.900Z,1.2
2023-01-17T02:32:34.727Z,1.14
2023-01-17T02:33:34.487Z,1.11
2023-01-17T02:34:34.460Z,1.08
2023-01-17T02:35:34.689Z,1.07
2023-01-17T02:36:34.414Z,1.1
2023-01-17T02:37:34.376Z,1.12
2023-01-17T02:38:34.635Z,1.11
2023-01-17T02:39:34.604Z,1.14
2023-01-17T02:40:34.056Z,1.2
2023-01-17T02:41:34.558Z,1.17
2023-01-17T02:42:34.539Z,1.22
2023-01-17T02:43:34.270Z,1.15
2023-01-17T02:44:34.490Z,1.24
2023-01-17T02:45:34.750Z,1.29
2023-01-17T02:46:34.189Z,1.22
2023-01-17T02:47:34.444Z,1.29
2023-01-17T02:48:34.427Z,1.38
2023-01-17T02:49:34.155Z,1.32
2023-01-17T02:50:34.380Z,1.4
2023-01-17T02:51:34.363Z,1.39
2023-01-17T02:52:34.091Z,1.47
2023-01-17T02:53:34.309Z,1.44
2023-01-17T02:54:34.305Z,1.47
2023-01-17T02:55:34.021Z,1.51
2023-01-17T02:56:36.543Z,1.46
2023-01-17T02:57:33.989Z,1.39
2023-01-17T02:58:34.222Z,1.48
2023-01-17T02:59:33.684Z,1.42
2023-01-17T03:00:34.216Z,1.47
2023-01-17T03:01:34.735Z,1.53
2023-01-17T03:02:34.323Z,1.48
2023-01-17T03:03:34.147Z,1.47
2023-01-17T03:04:33.854Z,1.44
2023-01-17T03:05:33.839Z,1.57
2023-01-17T03:06:33.802Z,1.57
2023-01-17T03:07:34.063Z,1.5
2023-01-17T03:08:33.785Z,1.58
2023-01-17T03:09:34.033Z,1.56
2023-01-17T03:10:33.991Z,1.57
2023-01-17T03:11:33.969Z,1.51
2023-01-17T03:12:33.699Z,1.57
2023-01-17T03:13:33.679Z,1.64
2023-01-17T03:14:33.652Z,1.58
2023-01-17T03:15:33.875Z,1.61
2023-01-17T03:16:34.102Z,1.6
2023-01-17T03:17:34.016Z,1.61
2023-01-17T03:18:33.619Z,1.58
2023-01-17T03:19:33.560Z,1.6
2023-01-17T03:20:33.797Z,1.58
2023-01-17T03:21:33.796Z,1.56
2023-01-17T03:22:33.514Z,1.64
2023-01-17T03:23:33.733Z,1.61
2023-01-17T03:24:33.724Z,1.61
2023-01-17T03:25:33.471Z,1.6
2023-01-17T03:26:33.667Z,1.65
2023-01-17T03:27:33.676Z,1.58
2023-01-17T03:28:33.642Z,1.58
2023-01-17T03:29:33.380Z,1.6
2023-01-17T03:30:33.593Z,1.58
2023-01-17T03:31:33.359Z,1.6
2023-01-17T03:32:33.573Z,1.58
2023-01-17T03:49:55.193Z,1.48
2023-01-17T03:50:55.087Z,1.53
2023-01-17T03:51:54.815Z,1.44
2023-01-17T03:52:55.041Z,1.53
2023-01-17T03:53:55.036Z,1.57
2023-01-17T03:54:55.010Z,1.56
2023-01-17T03:55:54.470Z,1.4
2023-01-17T03:56:54.964Z,1.44
2023-01-17T03:57:54.947Z,1.39
2023-01-17T03:58:54.929Z,1.36
2023-01-17T03:59:54.992Z,1.36
2023-01-17T04:00:54.609Z,1.42
2023-01-17T04:01:54.982Z,1.42
2023-01-17T04:02:54.831Z,1.42
2023-01-17T04:03:54.854Z,1.28
2023-01-17T04:04:54.295Z,1.32
2023-01-17T04:05:55.083Z,1.36
2023-01-17T04:06:54.500Z,1.36
2023-01-17T04:07:56.709Z,1.33
2023-01-17T04:08:55.530Z,1.26
2023-01-17T04:09:55.509Z,1.33
2023-01-17T04:10:54.974Z,1.29
2023-01-17T04:11:55.496Z,1.28
2023-01-17T04:12:55.205Z,1.29
2023-01-17T04:13:55.536Z,1.32
2023-01-17T04:14:55.416Z,1.22
2023-01-17T04:15:54.902Z,1.3
2023-01-17T04:16:55.370Z,1.18
2023-01-17T04:17:55.357Z,1.17
2023-01-17T04:18:55.070Z,1.26
2023-01-17T04:19:55.311Z,1.2
2023-01-17T04:20:55.035Z,1.18
2023-01-17T04:21:55.368Z,1.21
2023-01-17T04:22:55.001Z,1.2
2023-01-17T04:23:55.239Z,1.18
2023-01-17T04:24:54.968Z,1.18
2023-01-17T04:25:54.940Z,1.15
2023-01-17T04:26:54.920Z,1.1
2023-01-17T04:27:55.159Z,1.14
2023-01-17T04:28:55.171Z,1.11
2023-01-17T04:29:55.965Z,1.18
2023-01-17T04:30:55.832Z,1.11
2023-01-17T04:31:55.895Z,1.12
2023-01-17T04:32:55.901Z,1.12
2023-01-17T04:33:55.895Z,1.03
2023-01-17T04:34:55.861Z,1.12
2023-01-17T04:35:55.602Z,1.11
2023-01-17T04:36:55.583Z,1.18
2023-01-17T04:37:55.881Z,1.12
2023-01-17T04:38:55.798Z,1.11
2023-01-17T04:39:55.805Z,1.12
2023-01-17T04:40:55.759Z,1.12
2023-01-17T04:41:55.734Z,1.18
2023-01-17T04:42:55.713Z,1.1
2023-01-17T04:43:55.715Z,1.15
2023-01-17T04:44:55.672Z,1.1
2023-01-17T04:45:55.719Z,1.14
2023-01-17T04:46:55.631Z,1.14
2023-01-17T04:47:55.625Z,1.03
2023-01-17T04:48:55.607Z,1.15
2023-01-17T04:49:55.609Z,1.18
2023-01-17T04:50:55.301Z,1.1
2023-01-17T04:51:55.670Z,1.1
2023-01-17T04:52:55.653Z,1.15
2023-01-17T04:53:55.967Z,1.12
2023-01-17T04:54:55.648Z,1.14
2023-01-17T04:55:55.599Z,1.17
2023-01-17T04:56:55.875Z,1.04
2023-01-17T04:57:55.813Z,1.17
2023-01-17T04:58:55.783Z,1.14
2023-01-17T04:59:55.806Z,1.18
2023-01-17T05:00:55.745Z,1.08
2023-01-17T05:01:55.638Z,1.1
2023-01-17T05:02:55.692Z,1.11
2023-01-17T05:03:55.688Z,1.14
2023-01-17T05:04:55.157Z,1.18
2023-01-17T05:05:55.663Z,1.18
2023-01-17T05:06:55.377Z,1.08
2023-01-17T05:07:55.358Z,1.14
2023-01-17T05:08:55.337Z,1.2
2023-01-17T05:09:55.638Z,1.12
2023-01-17T05:10:55.560Z,1.11
2023-01-17T05:11:55.280Z,1.07
2023-01-17T05:12:55.262Z,1.15
2023-01-17T05:13:55.242Z,1.14
2023-01-17T05:14:55.223Z,1.2
2023-01-17T05:15:55.573Z,1.07
2023-01-17T05:16:55.188Z,1.2
2023-01-17T05:17:55.456Z,1.08
2023-01-17T05:18:55.388Z,1.17
2023-01-17T05:19:55.396Z,1.11
2023-01-17T05:20:55.374Z,1.17
2023-01-17T05:21:55.354Z,1.2
2023-01-17T05:22:55.361Z,1.2
2023-01-17T05:23:55.043Z,1.15
2023-01-17T05:24:55.023Z,1.11
2023-01-17T05:25:55.338Z,1.17
2023-01-17T05:26:55.232Z,1.12
2023-01-17T05:27:54.984Z,1.1
2023-01-17T05:28:55.216Z,1.11
2023-01-17T05:29:54.939Z,1.12
2023-01-17T05:30:55.302Z,1.11
2023-01-17T05:31:54.896Z,1.03
2023-01-17T05:32:55.139Z,1.14
2023-01-17T05:33:54.846Z,1.08
2023-01-17T05:34:54.837Z,1.11
2023-01-17T05:35:55.095Z,1.07
2023-01-17T05:36:55.073Z,1.1
2023-01-17T05:37:54.797Z,1.04
2023-01-17T05:38:54.762Z,1.04
2023-01-17T05:39:54.726Z,0.96
2023-01-17T05:40:54.968Z,1.04
2023-01-17T05:41:55.028Z,1.02
2023-01-17T05:42:54.949Z,0.99
2023-01-17T05:43:54.928Z,0.93
2023-01-17T05:44:54.635Z,0.93
2023-01-17T05:45:55.086Z,0.94
2023-01-17T05:46:54.861Z,0.99
2023-01-17T05:47:54.838Z,0.94
2023-01-17T05:48:54.583Z,0.86
2023-01-17T05:49:54.798Z,0.92
2023-01-17T05:50:55.053Z,0.93
2023-01-17T05:51:57.324Z,0.93
2023-01-17T05:52:55.250Z,0.92
2023-01-17T05:53:55.237Z,0.93
2023-01-17T05:54:55.218Z,1.02
2023-01-17T05:55:55.198Z,0.92
2023-01-17T05:56:55.177Z,0.97
2023-01-17T05:57:55.256Z,0.94
2023-01-17T05:58:54.886Z,0.89
2023-01-17T05:59:54.860Z,0.92
2023-01-17T06:00:55.254Z,0.9
2023-01-17T06:01:54.820Z,0.92
2023-01-17T06:02:55.224Z,0.92
2023-01-17T06:03:55.047Z,0.92
2023-01-17T06:04:54.948Z,0.84
2023-01-17T06:05:55.126Z,0.82
2023-01-17T06:06:54.990Z,0.81
2023-01-17T06:07:54.455Z,0.84
2023-01-17T06:08:54.699Z,0.85
2023-01-17T06:09:54.928Z,0.79
2023-01-17T06:10:54.406Z,0.85
2023-01-17T06:11:54.615Z,0.84
2023-01-17T06:12:54.857Z,0.84
2023-01-17T06:13:54.935Z,0.81
2023-01-17T06:14:54.829Z,0.76
2023-01-17T06:15:55.045Z,0.85
2023-01-17T06:16:54.537Z,0.92
2023-01-17T06:17:54.771Z,0.94
2023-01-17T06:18:54.501Z,0.97
2023-01-17T06:19:54.737Z,0.9
2023-01-17T06:20:54.485Z,0.96
2023-01-17T06:21:54.436Z,0.93
2023-01-17T06:22:54.429Z,0.86
2023-01-17T06:23:54.658Z,0.92
2023-01-17T06:24:54.114Z,0.86
2023-01-17T06:25:54.605Z,0.9
2023-01-17T06:26:54.584Z,0.89
2023-01-17T06:27:55.107Z,0.86
2023-01-17T06:28:55.078Z,0.89
2023-01-17T06:29:55.471Z,0.93
2023-01-17T06:30:55.393Z,0.9
2023-01-17T06:31:55.279Z,0.92
2023-01-17T06:32:55.279Z,0.93
2023-01-17T06:33:55.295Z,0.94
2023-01-17T06:34:55.231Z,0.86
2023-01-17T06:35:55.040Z,0.85
2023-01-17T06:36:54.939Z,0.92
2023-01-17T06:37:54.899Z,0.89
2023-01-17T06:38:55.139Z,1
2023-01-17T06:39:54.869Z,0.86
2023-01-17T06:40:55.104Z,1
2023-01-17T06:41:54.570Z,0.93
2023-01-17T06:42:55.078Z,1
2023-01-17T06:43:54.790Z,0.89
2023-01-17T06:44:55.026Z,0.97
2023-01-17T06:45:56.273Z,0.89
2023-01-17T06:46:54.645Z,0.93
2023-01-17T06:47:54.712Z,0.89
2023-01-17T06:48:54.687Z,0.85
2023-01-17T06:49:54.932Z,0.86
2023-01-17T06:50:54.671Z,0.89
2023-01-17T06:51:54.887Z,0.9
2023-01-17T06:52:54.604Z,0.94
2023-01-17T06:53:54.604Z,0.89
2023-01-17T06:54:54.833Z,0.9
2023-01-17T06:55:54.821Z,0.86
2023-01-17T06:56:54.522Z,0.89
2023-01-17T06:57:54.804Z,0.89
2023-01-17T06:58:54.240Z,0.89
2023-01-17T06:59:54.750Z,0.94
2023-01-17T07:00:54.932Z,0.9
2023-01-17T07:01:54.911Z,0.94
2023-01-17T07:02:54.418Z,0.94
2023-01-17T07:03:54.831Z,0.89
2023-01-17T07:04:54.371Z,0.96
2023-01-17T07:05:54.521Z,0.97
2023-01-17T07:06:54.485Z,0.99
2023-01-17T07:07:54.452Z,0.96
2023-01-17T07:08:54.434Z,0.9
2023-01-17T07:09:54.431Z,0.97
2023-01-17T07:10:54.671Z,0.97
2023-01-17T07:11:54.641Z,0.86
2023-01-17T07:12:54.607Z,0.89
2023-01-17T07:13:54.332Z,0.93
2023-01-17T07:14:54.595Z,0.93
2023-01-17T07:15:54.420Z,0.85
2023-01-17T07:16:54.046Z,0.89
2023-01-17T07:17:54.658Z,0.89
2023-01-17T07:18:54.500Z,0.94
2023-01-17T07:19:54.491Z,0.93
2023-01-17T07:20:54.206Z,0.99
2023-01-17T07:21:54.452Z,0.93
2023-01-17T07:22:54.435Z,0.9
2023-01-17T07:23:54.407Z,0.9
2023-01-17T07:24:54.377Z,0.89
2023-01-17T07:25:54.359Z,0.9
2023-01-17T07:26:54.095Z,0.92
2023-01-17T07:27:54.327Z,0.89
2023-01-17T07:28:53.803Z,0.93
2023-01-17T07:29:56.588Z,0.94
2023-01-17T07:30:54.045Z,0.96
2023-01-17T07:31:54.248Z,0.92
2023-01-17T07:32:54.225Z,0.96
2023-01-17T07:33:54.278Z,0.97
2023-01-17T07:34:53.672Z,1.02
2023-01-17T07:35:53.685Z,0.97
2023-01-17T07:36:53.641Z,0.94
2023-01-17T07:37:53.616Z,0.92
2023-01-17T07:38:54.119Z,1.02
2023-01-17T07:39:54.077Z,0.97
2023-01-17T07:40:54.094Z,0.96
2023-01-17T07:41:54.043Z,0.99
2023-01-17T07:42:54.046Z,1.03
2023-01-17T07:43:56.236Z,0.97
2023-01-17T07:44:54.001Z,0.97
2023-01-17T07:45:54.015Z,0.93
2023-01-17T07:46:53.829Z,0.97
2023-01-17T07:47:53.927Z,0.93
2023-01-17T07:48:53.653Z,0.93
2023-01-17T07:49:53.993Z,0.93
2023-01-17T07:50:53.879Z,0.93
2023-01-17T07:51:53.611Z,0.9
2023-01-17T07:52:53.829Z,0.9
2023-01-17T07:53:53.557Z,0.85
2023-01-17T07:54:53.806Z,0.86
2023-01-17T07:55:53.790Z,0.96
2023-01-17T07:56:53.522Z,0.9
2023-01-17T07:57:53.735Z,0.92
2023-01-17T07:58:53.489Z,0.9
2023-01-17T07:59:53.460Z,0.94
2023-01-17T08:00:54.062Z,0.94
2023-01-17T08:01:53.832Z,0.97
2023-01-17T08:02:53.662Z,0.94
2023-01-17T08:03:53.557Z,0.86
2023-01-17T08:04:53.092Z,0.89
2023-01-17T08:05:53.729Z,0.92
2023-01-17T08:06:53.310Z,0.86
2023-01-17T08:07:53.552Z,0.85
2023-01-17T08:08:53.051Z,0.97
2023-01-17T08:09:53.494Z,0.86
2023-01-17T08:10:53.484Z,0.85
2023-01-17T08:11:53.457Z,0.86
2023-01-17T08:12:53.473Z,0.89
2023-01-17T08:13:52.904Z,0.86
2023-01-17T08:14:53.151Z,0.89
2023-01-17T08:15:53.385Z,0.9
2023-01-17T08:16:53.363Z,0.92
2023-01-17T08:17:53.387Z,0.79
2023-01-17T08:18:52.824Z,0.81
2023-01-17T08:19:53.298Z,0.78
2023-01-17T08:20:53.383Z,0.86
2023-01-17T08:21:53.347Z,0.78
2023-01-17T08:22:52.986Z,0.9
2023-01-17T08:23:53.254Z,0.89
2023-01-17T08:24:52.700Z,0.92
2023-01-17T08:25:53.200Z,0.93
2023-01-17T08:26:52.657Z,0.84
2023-01-17T08:27:52.906Z,0.81
2023-01-17T08:28:53.174Z,0.84
2023-01-17T08:29:53.176Z,0.89
2023-01-17T08:30:53.432Z,0.86
2023-01-17T08:31:53.494Z,0.9
2023-01-17T08:32:53.121Z,0.92
2023-01-17T08:33:53.265Z,0.82
2023-01-17T08:34:53.514Z,0.78
2023-01-17T08:35:53.192Z,0.84
2023-01-17T08:36:53.300Z,0.96
2023-01-17T08:37:53.363Z,0.93
2023-01-17T08:38:53.266Z,0.97
2023-01-17T08:39:53.247Z,0.94
2023-01-17T08:40:52.961Z,0.94
2023-01-17T08:41:53.218Z,0.94
2023-01-17T08:42:52.929Z,0.94
2023-01-17T08:43:52.910Z,0.97
2023-01-17T08:44:52.882Z,1.03
2023-01-17T08:45:53.348Z,1.02
2023-01-17T08:46:52.864Z,1.04
2023-01-17T08:47:52.866Z,1.03
2023-01-17T08:48:53.068Z,0.99
2023-01-17T08:49:53.050Z,0.92
2023-01-17T08:50:53.038Z,0.96
2023-01-17T08:51:53.035Z,0.86
2023-01-17T08:52:52.994Z,0.78
2023-01-17T08:53:53.048Z,0.78
2023-01-17T08:54:52.700Z,0.66
2023-01-17T08:55:52.686Z,0.69
2023-01-17T08:56:53.003Z,0.66
2023-01-17T08:57:52.648Z,0.66
2023-01-17T08:58:52.627Z,0.6
2023-01-17T08:59:52.862Z,0.58
2023-01-17T09:00:53.232Z,0.52
2023-01-17T09:01:52.814Z,0.5
2023-01-17T09:02:52.550Z,0.47
2023-01-17T09:03:52.618Z,0.53
2023-01-17T09:04:52.533Z,0.53
2023-01-17T09:05:52.489Z,0.52
2023-01-17T09:06:52.463Z,0.56
2023-01-17T09:07:52.488Z,0.52
2023-01-17T09:08:52.818Z,0.48
2023-01-17T09:09:52.787Z,0.58
2023-01-17T09:10:52.644Z,0.48
2023-01-17T09:11:52.098Z,0.53
2023-01-17T09:12:52.596Z,0.5
2023-01-17T09:13:52.578Z,0.5
2023-01-17T09:14:52.301Z,0.52
2023-01-17T09:15:52.277Z,0.56
2023-01-17T09:16:52.360Z,0.56
2023-01-17T09:17:52.272Z,0.5
2023-01-17T09:18:52.273Z,0.53
2023-01-17T09:19:52.495Z,0.52
2023-01-17T09:20:52.186Z,0.48
2023-01-17T09:21:52.425Z,0.39
2023-01-17T09:22:52.426Z,0.38
2023-01-17T09:23:52.375Z,0.42
2023-01-17T09:24:52.364Z,0.41
2023-01-17T09:25:53.393Z,0.47
2023-01-17T09:26:52.069Z,0.48
2023-01-17T09:27:52.055Z,0.41
2023-01-17T09:28:52.038Z,0.47
2023-01-17T09:29:52.261Z,0.39
2023-01-17T09:30:52.396Z,0.38
2023-01-17T09:31:52.276Z,0.38
2023-01-17T09:32:52.213Z,0.41
2023-01-17T09:33:51.800Z,0.41
2023-01-17T09:34:52.172Z,0.38
2023-01-17T09:35:52.145Z,0.41
2023-01-17T09:36:52.123Z,0.42
2023-01-17T09:37:51.882Z,0.5
2023-01-17T09:38:52.101Z,0.5
2023-01-17T09:39:51.819Z,0.48
2023-01-17T09:40:51.852Z,0.5
2023-01-17T09:41:52.113Z,0.48
2023-01-17T09:42:51.770Z,0.58
2023-01-17T09:43:51.977Z,0.58
2023-01-17T09:44:51.979Z,0.57
2023-01-17T09:45:51.586Z,0.64
2023-01-17T09:46:51.937Z,0.71
2023-01-17T09:47:51.935Z,0.76
2023-01-17T09:48:51.900Z,0.85
2023-01-17T09:49:51.668Z,0.92
2023-01-17T09:50:51.605Z,1.03
2023-01-17T09:51:51.904Z,1.12
2023-01-17T09:52:51.560Z,1.15
2023-01-17T09:53:51.548Z,1.15
2023-01-17T09:54:51.809Z,1.15
2023-01-17T09:55:51.758Z,1.17
2023-01-17T09:56:51.214Z,1.21
2023-01-17T09:57:52.504Z,1.44
2023-01-17T09:58:52.407Z,1.5
2023-01-17T10:00:06.824Z,1.54
2023-01-17T10:00:52.473Z,1.47
2023-01-17T10:01:52.933Z,1.58
2023-01-17T10:02:52.825Z,1.54
2023-01-17T10:03:52.470Z,1.66
2023-01-17T10:04:52.305Z,1.74
2023-01-17T10:05:52.296Z,1.72
2023-01-17T10:06:52.254Z,1.75
2023-01-17T10:07:51.970Z,1.65
2023-01-17T10:08:52.259Z,1.66
2023-01-17T10:09:52.189Z,1.53
2023-01-17T10:10:51.926Z,1.53
2023-01-17T10:11:52.151Z,1.39
2023-01-17T10:12:52.125Z,1.32
2023-01-17T10:13:52.194Z,1.42
2023-01-17T10:14:51.602Z,1.24
2023-01-17T10:15:51.949Z,1.26
2023-01-17T10:16:52.252Z,1.26
2023-01-17T10:17:51.778Z,1.29
2023-01-17T10:18:52.032Z,1.2
2023-01-17T10:19:51.990Z,1.29
2023-01-17T10:20:51.719Z,1.2
2023-01-17T10:21:52.014Z,1.24
2023-01-17T10:22:51.933Z,1.28
2023-01-17T10:23:51.691Z,1.36
2023-01-17T10:24:51.642Z,1.39
2023-01-17T10:25:52.052Z,1.42
2023-01-17T10:26:51.864Z,1.4
2023-01-17T10:27:51.831Z,1.38
2023-01-17T10:28:51.615Z,1.44
2023-01-17T10:29:51.899Z,1.48
2023-01-17T10:30:51.531Z,1.53
2023-01-17T10:31:51.497Z,1.54
2023-01-17T10:32:51.785Z,1.57
2023-01-17T10:33:51.470Z,1.6
2023-01-17T10:34:51.813Z,1.61
2023-01-17T10:35:51.688Z,1.57
2023-01-17T10:36:51.416Z,1.5
2023-01-17T10:37:51.657Z,1.46
2023-01-17T10:38:51.631Z,1.46
2023-01-17T10:39:51.626Z,1.53
2023-01-17T10:40:51.089Z,1.51
2023-01-17T10:41:51.579Z,1.47
2023-01-17T10:42:53.753Z,1.51
2023-01-17T10:43:51.284Z,1.57
2023-01-17T10:44:51.016Z,1.46
2023-01-17T10:45:51.796Z,1.6
2023-01-17T10:46:51.229Z,1.74
2023-01-17T10:47:50.949Z,1.83
2023-01-17T10:48:51.439Z,2.13
2023-01-17T10:49:51.498Z,2.29
2023-01-17T10:50:51.388Z,2.38
2023-01-17T10:51:51.378Z,2.42
2023-01-17T10:52:51.368Z,2.44
2023-01-17T10:53:51.340Z,2.33
2023-01-17T10:54:51.347Z,2.38
2023-01-17T10:55:51.299Z,2.4
2023-01-17T10:56:51.035Z,2.45
2023-01-17T10:57:51.303Z,2.55
2023-01-17T10:58:51.000Z,2.45
2023-01-17T10:59:51.238Z,2.58
2023-01-17T11:00:50.965Z,2.58
2023-01-17T11:01:53.656Z,2.63
2023-01-17T11:02:51.472Z,2.62
2023-01-17T11:03:51.330Z,2.7
2023-01-17T11:04:51.328Z,2.58
2023-01-17T11:05:51.283Z,2.62
2023-01-17T11:07:02.897Z,2.69
2023-01-17T11:07:50.996Z,2.77
2023-01-17T11:08:50.979Z,2.78
2023-01-17T11:09:51.202Z,2.87
2023-01-17T11:10:51.205Z,3.06
2023-01-17T11:11:51.158Z,3.08
2023-01-17T11:12:51.152Z,3.13
2023-01-17T11:13:51.143Z,3.14
2023-01-17T11:14:51.122Z,3.09
2023-01-17T11:15:50.992Z,3.14
2023-01-17T11:16:50.588Z,3.19
2023-01-17T11:17:51.150Z,3.35
2023-01-17T11:18:50.787Z,3.43
2023-01-17T11:19:50.773Z,3.42
2023-01-17T11:20:50.883Z,3.45
2023-01-17T11:21:51.180Z,3.45
2023-01-17T11:22:50.977Z,3.42
2023-01-17T11:23:50.988Z,3.24
2023-01-17T11:24:50.691Z,3.23
2023-01-17T11:25:50.924Z,3.11
2023-01-17T11:26:50.907Z,3.05
2023-01-17T11:27:50.656Z,3.03
2023-01-17T11:28:50.897Z,2.95
2023-01-17T11:29:50.839Z,2.85
2023-01-17T11:30:50.969Z,2.81
2023-01-17T11:31:50.823Z,2.73
2023-01-17T11:32:50.807Z,2.67
2023-01-17T11:33:50.965Z,2.73
2023-01-17T11:34:50.500Z,2.81
2023-01-17T11:35:50.788Z,2.88
2023-01-17T11:36:50.736Z,2.96
2023-01-17T11:37:50.446Z,3.09
2023-01-17T11:38:50.456Z,3.09
2023-01-17T11:39:50.450Z,3.14
2023-01-17T11:40:50.511Z,3.09
2023-01-17T11:41:50.628Z,3.21
2023-01-17T11:42:50.104Z,3.23
2023-01-17T11:43:50.602Z,3.29
2023-01-17T11:44:50.587Z,3.21
2023-01-17T11:45:50.376Z,3.21
2023-01-17T11:46:50.531Z,3.16
2023-01-17T11:47:50.253Z,3.01
2023-01-17T11:48:50.507Z,3.16
2023-01-17T11:49:50.656Z,3.01
2023-01-17T11:50:50.257Z,3.08
2023-01-17T11:51:50.191Z,3.02
2023-01-17T11:52:49.908Z,3.02
2023-01-17T11:53:50.432Z,3.05
2023-01-17T11:54:50.421Z,3.03
2023-01-17T11:55:50.443Z,3.02
2023-01-17T11:56:50.160Z,2.87
2023-01-17T11:57:50.420Z,2.95
2023-01-17T11:58:49.801Z,2.88
2023-01-17T11:59:49.888Z,2.9
2023-01-17T12:00:50.437Z,2.78
2023-01-17T12:01:50.294Z,2.72
2023-01-17T12:02:50.025Z,2.78
2023-01-17T12:03:50.377Z,2.73
2023-01-17T12:04:50.132Z,2.72
2023-01-17T12:05:50.291Z,2.78
2023-01-17T12:07:02.098Z,2.77
2023-01-17T12:07:49.922Z,2.6
2023-01-17T12:08:50.170Z,2.59
2023-01-17T12:09:50.119Z,2.58
2023-01-17T12:10:49.849Z,2.48
2023-01-17T12:11:50.084Z,2.27
2023-01-17T12:12:50.077Z,2.31
2023-01-17T12:13:49.532Z,2.36
2023-01-17T12:14:50.046Z,2.33
2023-01-17T12:15:49.968Z,2.31
2023-01-17T12:16:49.773Z,2.36
2023-01-17T12:17:49.960Z,2.31
2023-01-17T12:18:49.744Z,2.31
2023-01-17T12:19:49.671Z,2.38
2023-01-17T12:20:49.922Z,2.44
2023-01-17T12:21:49.972Z,2.33
2023-01-17T12:22:49.688Z,2.48
2023-01-17T12:23:49.886Z,2.51
2023-01-17T12:24:49.876Z,2.51
2023-01-17T12:25:49.840Z,2.52
2023-01-17T12:26:49.827Z,2.55
2023-01-17T12:27:49.550Z,2.55
2023-01-17T12:28:49.844Z,2.55
2023-01-17T12:29:49.772Z,2.55
2023-01-17T12:30:49.530Z,2.54
2023-01-17T12:31:49.773Z,2.62
2023-01-17T12:32:49.842Z,2.49
2023-01-17T12:33:49.461Z,2.45
2023-01-17T12:34:49.422Z,2.42
2023-01-17T12:35:49.662Z,2.38
2023-01-17T12:36:51.739Z,2.34
2023-01-17T12:38:04.872Z,2.31
2023-01-17T12:38:49.381Z,2.4
2023-01-17T12:39:49.590Z,2.31
2023-01-17T12:40:49.570Z,2.47
2023-01-17T12:41:49.538Z,2.44
2023-01-17T12:42:51.186Z,2.31
2023-01-17T12:43:49.289Z,2.41
2023-01-17T12:44:49.492Z,2.3
2023-01-17T12:45:49.461Z,2.34
2023-01-17T12:46:49.657Z,2.29
2023-01-17T12:47:49.441Z,2.34
2023-01-17T12:48:49.388Z,2.34
2023-01-17T12:49:49.382Z,2.26
2023-01-17T12:50:49.363Z,2.23
2023-01-17T12:51:50.625Z,2.16
2023-01-17T12:52:49.380Z,2.18
2023-01-17T12:53:49.412Z,2.15
2023-01-17T12:54:49.022Z,2.15
2023-01-17T12:55:49.270Z,2.12
2023-01-17T12:56:48.999Z,1.93
2023-01-17T12:57:49.227Z,1.97
2023-01-17T12:58:48.700Z,1.84
2023-01-17T12:59:48.957Z,1.72
2023-01-17T13:00:49.480Z,1.58
2023-01-17T13:01:49.486Z,1.56
2023-01-17T13:02:48.899Z,1.48
2023-01-17T13:03:49.156Z,1.47
2023-01-17T13:05:02.905Z,1.53
2023-01-17T13:05:49.079Z,1.54
2023-01-17T13:06:49.061Z,1.48
2023-01-17T13:07:49.046Z,1.47
2023-01-17T13:08:49.043Z,1.48
2023-01-17T13:09:49.084Z,1.6
2023-01-17T13:10:48.737Z,1.58
2023-01-17T13:11:49.015Z,1.6
2023-01-17T13:12:48.940Z,1.78
2023-01-17T13:13:48.700Z,1.87
2023-01-17T13:14:48.685Z,1.84
2023-01-17T13:15:48.887Z,1.9
2023-01-17T13:16:48.614Z,1.98
2023-01-17T13:17:48.595Z,2.06
2023-01-17T13:18:48.854Z,2.08
2023-01-17T13:19:48.807Z,2.06
2023-01-17T13:20:48.795Z,2.01
2023-01-17T13:21:48.597Z,1.9
2023-01-17T13:22:48.507Z,1.89
2023-01-17T13:23:48.736Z,1.71
2023-01-17T13:24:48.217Z,1.75
2023-01-17T13:25:48.781Z,1.65
2023-01-17T13:26:48.686Z,1.48
2023-01-17T13:27:48.659Z,1.57
2023-01-17T13:28:48.392Z,1.53
2023-01-17T13:29:48.387Z,1.36
2023-01-17T13:30:48.596Z,1.33
2023-01-17T13:31:48.773Z,1.38
2023-01-17T13:32:48.609Z,1.3
2023-01-17T13:33:48.596Z,1.42
2023-01-17T13:34:48.533Z,1.36
2023-01-17T13:35:48.562Z,1.4
2023-01-17T13:36:47.989Z,1.4
2023-01-17T13:37:48.480Z,1.4